createdAt,value
2023-01-02T00:00:21.234Z,100721.16
2023-01-02T00:01:27.641Z,100716.83
2023-01-02T00:02:33.434Z,100720.41
2023-01-02T00:03:40.557Z,100728.20
2023-01-02T00:04:46.618Z,100722.80
2023-01-02T00:05:49.594Z,100720.22
2023-01-02T00:06:53.210Z,100723.73
2023-01-02T00:08:00.352Z,100728.02
2023-01-02T00:09:06.200Z,100724.77
2023-01-02T00:10:09.497Z,100732.70
2023-01-02T00:11:12.780Z,100728.27
2023-01-02T00:12:15.121Z,100728.42
2023-01-02T00:13:18.529Z,100725.70
2023-01-02T00:14:21.921Z,100718.63
2023-01-02T00:15:28.132Z,100720.41
2023-01-02T00:16:31.326Z,100721.20
2023-01-02T00:17:36.642Z,100727.49
2023-01-02T00:18:39.911Z,100724.92
2023-01-02T00:19:45.427Z,100721.52
2023-01-02T00:20:47.743Z,100723.45
2023-01-02T00:21:51.574Z,100729.60
2023-01-02T00:22:54.979Z,100720.73
2023-01-02T00:23:57.647Z,100728.50
2023-01-02T00:25:01.771Z,100721.52
2023-01-02T00:26:05.382Z,100722.45
2023-01-02T00:27:08.681Z,100723.12
2023-01-02T00:28:13.471Z,100718.87
2023-01-02T00:29:17.048Z,100722.27
2023-01-02T00:30:20.439Z,100725.02
2023-01-02T00:31:24.612Z,100722.27
2023-01-02T00:32:28.308Z,100722.52
2023-01-02T00:33:31.695Z,100721.41
2023-01-02T00:34:34.981Z,100721.52
2023-01-02T00:35:39.015Z,100720.73
2023-01-02T00:36:41.154Z,100718.23
2023-01-02T00:37:44.481Z,100721.88
2023-01-02T00:38:47.979Z,100726.53
2023-01-02T00:39:52.517Z,100722.96
2023-01-02T00:40:56.013Z,100721.32
2023-01-02T00:41:59.840Z,100723.75
2023-01-02T00:43:03.273Z,100725.24
2023-01-02T00:44:06.123Z,100734.11
2023-01-02T00:45:11.147Z,100723.21
2023-01-02T00:46:16.505Z,100718.85
2023-01-02T00:47:21.437Z,100720.78
2023-01-02T00:48:25.150Z,100721.64
2023-01-02T00:49:29.420Z,100727.86
2023-01-02T00:50:33.935Z,100727.47
2023-01-02T00:51:37.102Z,100734.41
2023-01-02T00:52:40.533Z,100733.86
2023-01-02T00:53:43.814Z,100736.80
2023-01-02T00:54:47.538Z,100736.72
2023-01-02T00:55:53.501Z,100733.50
2023-01-02T00:56:57.068Z,100736.08
2023-01-02T00:58:00.355Z,100736.47
2023-01-02T00:59:05.840Z,100731.89
2023-01-02T01:00:11.501Z,100728.22
2023-01-02T01:01:16.852Z,100727.14
2023-01-02T01:02:20.324Z,100727.14
2023-01-02T01:03:22.889Z,100735.40
2023-01-02T01:04:26.201Z,100726.28
2023-01-02T01:05:30.215Z,100727.07
2023-01-02T01:06:33.818Z,100734.80
2023-01-02T01:07:37.019Z,100731.29
2023-01-02T01:08:40.128Z,100728.64
2023-01-02T01:09:44.240Z,100729.36
2023-01-02T01:10:47.543Z,100726.78
2023-01-02T01:11:50.918Z,100732.15
2023-01-02T01:12:53.811Z,100723.36
2023-01-02T01:13:57.269Z,100729.43
2023-01-02T01:15:00.597Z,100736.87
2023-01-02T01:16:09.059Z,100740.30
2023-01-02T01:17:12.233Z,100731.15
2023-01-02T01:18:17.696Z,100735.19
2023-01-02T01:19:19.947Z,100739.40
2023-01-02T01:20:22.414Z,100733.33
2023-01-02T01:21:27.454Z,100741.34
2023-01-02T01:22:30.678Z,100739.62
2023-01-02T01:23:33.332Z,100745.55
2023-01-02T01:24:36.121Z,100743.69
2023-01-02T01:25:39.625Z,100739.40
2023-01-02T01:26:43.967Z,100740.33
2023-01-02T01:27:47.367Z,100736.19
2023-01-02T01:28:51.831Z,100740.55
2023-01-02T01:29:56.415Z,100747.34
2023-01-02T01:31:04.146Z,100740.26
2023-01-02T01:32:08.081Z,100735.19
2023-01-02T01:33:11.577Z,100735.97
2023-01-02T01:34:14.449Z,100739.77
2023-01-02T01:35:17.339Z,100737.76
2023-01-02T01:36:21.836Z,100734.55
2023-01-02T01:37:25.280Z,100733.01
2023-01-02T01:38:28.778Z,100735.50
2023-01-02T01:39:32.499Z,100745.37
2023-01-02T01:40:39.456Z,100731.15
2023-01-02T01:41:42.741Z,100733.86
2023-01-02T01:42:50.097Z,100733.80
2023-01-02T01:43:53.205Z,100737.58
2023-01-02T01:44:56.087Z,100739.44
2023-01-02T01:45:59.725Z,100735.16
2023-01-02T01:47:02.264Z,100743.16
2023-01-02T01:48:04.813Z,100742.30
2023-01-02T01:49:13.442Z,100744.19
2023-01-02T01:50:17.679Z,100749.63
2023-01-02T01:51:21.387Z,100753.80
2023-01-02T01:52:28.962Z,100752.13
2023-01-02T01:53:32.272Z,100738.11
2023-01-02T01:54:37.134Z,100742.61
2023-01-02T01:55:42.311Z,100739.39
2023-01-02T01:56:47.298Z,100742.03
2023-01-02T01:57:54.229Z,100742.11
2023-01-02T01:58:57.837Z,100741.18
2023-01-02T02:00:02.597Z,100747.47
2023-01-02T02:01:08.237Z,100739.47
2023-01-02T02:02:11.806Z,100743.21
2023-01-02T02:03:18.482Z,100742.42
2023-01-02T02:04:22.977Z,100745.99
2023-01-02T02:05:27.224Z,100738.92
2023-01-02T02:06:31.152Z,100746.47
2023-01-02T02:07:36.637Z,100749.77
2023-01-02T02:08:48.082Z,100750.48
2023-01-02T02:09:56.226Z,100751.55
2023-01-02T02:10:59.778Z,100754.27
2023-01-02T02:12:05.070Z,100751.55
2023-01-02T02:13:08.879Z,100755.19
2023-01-02T02:14:12.737Z,100763.19
2023-01-02T02:15:17.887Z,100754.27
2023-01-02T02:16:23.192Z,100756.55
2023-01-02T02:17:41.606Z,100755.12
2023-01-02T02:19:04.554Z,100757.48
2023-01-02T02:20:10.135Z,100759.62
2023-01-02T02:21:30.973Z,100757.05
2023-01-02T02:22:56.998Z,100746.61
2023-01-02T02:24:04.512Z,100754.47
2023-01-02T02:25:18.036Z,100752.86
2023-01-02T02:26:31.996Z,100754.78
2023-01-02T02:27:36.990Z,100763.84
2023-01-02T02:28:47.047Z,100771.78
2023-01-02T02:30:07.479Z,100756.98
2023-01-02T02:32:46.341Z,100760.55
2023-01-02T02:33:56.172Z,100767.00
2023-01-02T02:35:01.312Z,100771.43
2023-01-02T02:36:05.826Z,100780.42
2023-01-02T02:37:13.334Z,100788.48
2023-01-02T02:38:22.731Z,100778.84
2023-01-02T02:39:37.037Z,100788.66
2023-01-02T02:40:54.671Z,100787.13
2023-01-02T02:42:00.136Z,100789.71
2023-01-02T02:43:06.142Z,100801.20
2023-01-02T02:44:19.830Z,100792.55
2023-01-02T02:45:36.702Z,100795.27
2023-01-02T02:46:52.048Z,100799.32
2023-01-02T02:48:03.196Z,100792.31
2023-01-02T02:49:16.936Z,100796.67
2023-01-02T02:50:35.477Z,100795.88
2023-01-02T02:51:43.900Z,100798.39
2023-01-02T02:52:50.115Z,100800.11
2023-01-02T02:53:57.895Z,100798.33
2023-01-02T02:55:04.383Z,100804.54
2023-01-02T02:56:09.408Z,100802.82
2023-01-02T02:57:15.104Z,100804.00
2023-01-02T02:58:19.865Z,100816.29
2023-01-02T02:59:28.848Z,100816.35
2023-01-02T03:00:34.525Z,100816.45
2023-01-02T03:01:37.839Z,100817.63
2023-01-02T03:02:41.636Z,100815.91
2023-01-02T03:03:45.114Z,100817.63
2023-01-02T03:04:49.860Z,100814.98
2023-01-02T03:05:56.422Z,100816.64
2023-01-02T03:07:02.837Z,100824.50
2023-01-02T03:08:15.533Z,100819.22
2023-01-02T03:09:37.006Z,100823.58
2023-01-02T03:10:47.286Z,100824.38
2023-01-02T03:11:57.070Z,100827.08
2023-01-02T03:13:05.172Z,100828.80
2023-01-02T03:14:17.673Z,100821.57
2023-01-02T03:15:24.954Z,100824.21
2023-01-02T03:16:29.393Z,100824.08
2023-01-02T03:17:49.624Z,100819.85
2023-01-02T03:19:11.368Z,100819.85
2023-01-02T03:20:17.904Z,100820.65
2023-01-02T03:21:27.927Z,100819.79
2023-01-02T03:22:33.916Z,100824.94
2023-01-02T03:23:39.803Z,100816.95
2023-01-02T03:24:46.673Z,100815.23
2023-01-02T03:25:52.645Z,100811.80
2023-01-02T03:26:57.827Z,100812.72
2023-01-02T03:28:01.861Z,100819.66
2023-01-02T03:29:09.884Z,100813.32
2023-01-02T03:30:19.233Z,100815.96
2023-01-02T03:31:24.501Z,100815.96
2023-01-02T03:32:35.611Z,100815.96
2023-01-02T03:33:41.576Z,100813.19
2023-01-02T03:34:47.032Z,100826.05
2023-01-02T03:35:54.590Z,100819.77
2023-01-02T03:37:03.779Z,100822.22
2023-01-02T03:38:10.178Z,100832.48
2023-01-02T03:39:18.149Z,100826.28
2023-01-02T03:40:23.868Z,100826.28
2023-01-02T03:41:32.077Z,100827.80
2023-01-02T03:42:37.136Z,100833.94
2023-01-02T03:43:42.293Z,100830.44
2023-01-02T03:44:51.259Z,100823.50
2023-01-02T03:45:56.560Z,100829.58
2023-01-02T03:47:00.665Z,100841.88
2023-01-02T03:48:04.806Z,100837.58
2023-01-02T03:49:19.296Z,100834.20
2023-01-02T03:50:24.768Z,100840.34
2023-01-02T03:51:28.376Z,100842.00
2023-01-02T03:52:33.485Z,100836.85
2023-01-02T03:53:39.772Z,100837.44
2023-01-02T03:54:43.177Z,100835.36
2023-01-02T03:55:53.141Z,100842.93
2023-01-02T03:56:59.478Z,100842.86
2023-01-02T03:58:11.025Z,100846.36
2023-01-02T03:59:31.755Z,100843.72
2023-01-02T04:00:39.749Z,100850.86
2023-01-02T04:01:45.199Z,100849.20
2023-01-02T04:02:56.550Z,100851.78
2023-01-02T04:04:22.492Z,100851.72
2023-01-02T04:05:31.404Z,100841.88
2023-01-02T04:06:36.128Z,100845.64
2023-01-02T04:07:43.081Z,100844.78
2023-01-02T04:08:48.795Z,100850.86
2023-01-02T04:09:53.130Z,100847.29
2023-01-02T04:10:58.875Z,100850.20
2023-01-02T04:12:07.247Z,100849.44
2023-01-02T04:13:11.789Z,100857.42
2023-01-02T04:14:18.839Z,100852.84
2023-01-02T04:15:25.967Z,100852.51
2023-01-02T04:16:30.295Z,100851.78
2023-01-02T04:17:37.712Z,100848.41
2023-01-02T04:18:46.889Z,100855.48
2023-01-02T04:19:51.845Z,100850.00
2023-01-02T04:20:56.639Z,100858.78
2023-01-02T04:22:01.663Z,100860.57
2023-01-02T04:23:09.658Z,100865.13
2023-01-02T04:24:15.008Z,100859.84
2023-01-02T04:25:18.732Z,100856.34
2023-01-02T04:26:22.886Z,100865.00
2023-01-02T04:27:28.589Z,100867.84
2023-01-02T04:28:32.949Z,100867.20
2023-01-02T04:29:35.541Z,100870.77
2023-01-02T04:30:42.731Z,100877.77
2023-01-02T04:31:53.773Z,100874.41
2023-01-02T04:33:00.729Z,100880.42
2023-01-02T04:34:04.867Z,100881.91
2023-01-02T04:35:14.005Z,100876.49
2023-01-02T04:36:18.454Z,100880.36
2023-01-02T04:37:29.473Z,100874.34
2023-01-02T04:38:32.665Z,100881.53
2023-01-02T04:39:38.066Z,100888.60
2023-01-02T04:40:41.795Z,100885.39
2023-01-02T04:41:45.175Z,100892.52
2023-01-02T04:42:48.254Z,100885.64
2023-01-02T04:43:52.602Z,100884.05
2023-01-02T04:44:55.260Z,100879.69
2023-01-02T04:45:58.368Z,100883.12
2023-01-02T04:47:04.512Z,100886.97
2023-01-02T04:48:09.867Z,100888.14
2023-01-02T04:49:13.917Z,100887.34
2023-01-02T04:50:17.716Z,100893.55
2023-01-02T04:51:23.298Z,100891.13
2023-01-02T04:52:32.033Z,100888.42
2023-01-02T04:53:33.222Z,100898.03
2023-01-02T04:54:36.371Z,100895.55
2023-01-02T04:55:43.471Z,100901.87
2023-01-02T04:56:48.037Z,100908.81
2023-01-02T04:57:51.525Z,100901.87
2023-01-02T04:58:54.611Z,100901.07
2023-01-02T04:59:58.028Z,100905.49
2023-01-02T05:01:01.130Z,100908.31
2023-01-02T05:02:05.634Z,100910.43
2023-01-02T05:03:09.117Z,100911.34
2023-01-02T05:04:13.066Z,100909.75
2023-01-02T05:05:16.270Z,100914.28
2023-01-02T05:06:18.623Z,100916.09
2023-01-02T05:07:21.716Z,100915.14
2023-01-02T05:08:26.091Z,100919.83
2023-01-02T05:09:31.662Z,100916.39
2023-01-02T05:10:35.166Z,100916.27
2023-01-02T05:11:39.781Z,100928.61
2023-01-02T05:12:43.111Z,100919.83
2023-01-02T05:13:46.359Z,100926.95
2023-01-02T05:14:52.467Z,100930.39
2023-01-02T05:15:56.757Z,100931.30
2023-01-02T05:17:00.159Z,100935.90
2023-01-02T05:18:03.570Z,100937.08
2023-01-02T05:19:06.711Z,100942.47
2023-01-02T05:20:11.943Z,100940.70
2023-01-02T05:21:33.627Z,100939.66
2023-01-02T05:22:58.417Z,100949.03
2023-01-02T05:24:02.536Z,100945.36
2023-01-02T05:25:07.295Z,100940.03
2023-01-02T05:26:10.803Z,100940.83
2023-01-02T05:27:14.576Z,100941.81
2023-01-02T05:28:17.928Z,100943.41
2023-01-02T05:29:21.442Z,100950.58
2023-01-02T05:30:24.890Z,100954.03
2023-01-02T05:31:30.192Z,100944.18
2023-01-02T05:32:33.565Z,100945.04
2023-01-02T05:33:37.234Z,100948.42
2023-01-02T05:34:40.385Z,100945.78
2023-01-02T05:35:43.710Z,100951.92
2023-01-02T05:36:46.285Z,100945.66
2023-01-02T05:37:50.457Z,100953.59
2023-01-02T05:38:54.231Z,100957.03
2023-01-02T05:39:57.824Z,100961.33
2023-01-02T05:41:06.598Z,100956.17
2023-01-02T05:42:09.856Z,100955.36
2023-01-02T05:43:13.179Z,100951.87
2023-01-02T05:44:16.554Z,100964.32
2023-01-02T05:45:21.008Z,100964.32
2023-01-02T05:46:24.575Z,100968.63
2023-01-02T05:47:27.935Z,100960.82
2023-01-02T05:48:32.431Z,100965.18
2023-01-02T05:49:36.077Z,100966.10
2023-01-02T05:50:39.471Z,100971.44
2023-01-02T05:51:44.753Z,100967.16
2023-01-02T05:52:47.312Z,100966.30
2023-01-02T05:53:55.635Z,100964.59
2023-01-02T05:55:02.474Z,100966.36
2023-01-02T05:56:06.720Z,100965.30
2023-01-02T05:57:10.216Z,100966.25
2023-01-02T05:58:13.721Z,100960.82
2023-01-02T05:59:18.823Z,100969.92
2023-01-02T06:00:22.942Z,100962.29
2023-01-02T06:01:26.571Z,100962.29
2023-01-02T06:02:32.335Z,100962.17
2023-01-02T06:03:36.023Z,100958.62
2023-01-02T06:04:39.556Z,100963.84
2023-01-02T06:05:42.118Z,100965.84
2023-01-02T06:06:46.774Z,100963.15
2023-01-02T06:07:50.388Z,100957.22
2023-01-02T06:08:54.445Z,100958.19
2023-01-02T06:09:57.816Z,100963.41
2023-01-02T06:11:02.050Z,100960.72
2023-01-02T06:12:05.545Z,100962.41
2023-01-02T06:13:08.791Z,100968.31
2023-01-02T06:14:11.099Z,100970.95
2023-01-02T06:15:13.444Z,100971.06
2023-01-02T06:16:20.552Z,100967.56
2023-01-02T06:17:24.956Z,100971.02
2023-01-02T06:18:28.450Z,100982.43
2023-01-02T06:19:32.805Z,100971.93
2023-01-02T06:20:36.207Z,100977.16
2023-01-02T06:21:39.500Z,100976.23
2023-01-02T06:22:43.748Z,100977.95
2023-01-02T06:23:47.870Z,100983.98
2023-01-02T06:24:51.090Z,100985.70
2023-01-02T06:25:54.555Z,100989.05
2023-01-02T06:27:00.097Z,100995.94
2023-01-02T06:28:06.290Z,100987.05
2023-01-02T06:29:09.880Z,100987.91
2023-01-02T06:30:14.069Z,100988.59
2023-01-02T06:31:18.972Z,100994.58
2023-01-02T06:32:21.233Z,100996.25
2023-01-02T06:33:24.738Z,100997.05
2023-01-02T06:34:28.167Z,100987.17
2023-01-02T06:35:32.289Z,100989.55
2023-01-02T06:36:35.993Z,100981.56
2023-01-02T06:37:47.741Z,100981.38
2023-01-02T06:38:51.338Z,100983.91
2023-01-02T06:39:54.855Z,100986.09
2023-01-02T06:41:01.181Z,100991.13
2023-01-02T06:42:04.333Z,100992.86
2023-01-02T06:43:07.552Z,100991.78
2023-01-02T06:44:13.487Z,100990.67
2023-01-02T06:45:16.903Z,100992.05
2023-01-02T06:46:21.202Z,100993.52
2023-01-02T06:47:25.331Z,100997.60
2023-01-02T06:48:35.936Z,100988.63
2023-01-02T06:49:40.175Z,100987.45
2023-01-02T06:50:43.795Z,100995.82
2023-01-02T06:51:46.037Z,100996.49
2023-01-02T06:52:49.660Z,100996.86
2023-01-02T06:53:52.948Z,101001.03
2023-01-02T06:54:56.240Z,101000.55
2023-01-02T06:55:59.788Z,100998.75
2023-01-02T06:57:03.990Z,101008.55
2023-01-02T06:58:11.118Z,101001.30
2023-01-02T06:59:10.258Z,101011.69
2023-01-02T07:00:15.474Z,101006.12
2023-01-02T07:01:19.837Z,101005.09
2023-01-02T07:02:23.269Z,101006.73
2023-01-02T07:03:28.991Z,101010.83
2023-01-02T07:04:31.543Z,101007.00
2023-01-02T07:05:34.223Z,100999.67
2023-01-02T07:06:38.238Z,101001.34
2023-01-02T07:07:41.673Z,101006.10
2023-01-02T07:08:44.428Z,101010.00
2023-01-02T07:09:47.823Z,101015.08
2023-01-02T07:10:53.136Z,101011.01
2023-01-02T07:11:59.429Z,101014.59
2023-01-02T07:13:04.292Z,101014.34
2023-01-02T07:14:09.254Z,101011.11
2023-01-02T07:15:12.661Z,101017.66
2023-01-02T07:16:17.352Z,101018.02
2023-01-02T07:17:21.466Z,101017.20
2023-01-02T07:18:24.845Z,101025.16
2023-01-02T07:19:27.103Z,101017.07
2023-01-02T07:20:30.385Z,101015.56
2023-01-02T07:21:35.548Z,101019.38
2023-01-02T07:22:41.170Z,101021.75
2023-01-02T07:23:45.003Z,101021.46
2023-01-02T07:24:49.756Z,101019.30
2023-01-02T07:26:01.495Z,101025.38
2023-01-02T07:27:04.575Z,101029.27
2023-01-02T07:28:08.642Z,101027.17
2023-01-02T07:29:11.843Z,101021.16
2023-01-02T07:30:16.359Z,101022.16
2023-01-02T07:31:19.530Z,101030.19
2023-01-02T07:32:27.100Z,101030.11
2023-01-02T07:33:28.427Z,101029.11
2023-01-02T07:34:32.780Z,101027.45
2023-01-02T07:35:38.198Z,101028.95
2023-01-02T07:36:41.666Z,101037.52
2023-01-02T07:37:45.070Z,101028.11
2023-01-02T07:38:54.888Z,101022.55
2023-01-02T07:40:00.307Z,101031.05
2023-01-02T07:41:07.290Z,101034.87
2023-01-02T07:42:16.038Z,101033.17
2023-01-02T07:43:20.573Z,101032.05
2023-01-02T07:44:25.483Z,101036.77
2023-01-02T07:45:28.880Z,101035.75
2023-01-02T07:46:32.289Z,101032.64
2023-01-02T07:47:36.489Z,101043.44
2023-01-02T07:48:40.286Z,101046.86
2023-01-02T07:49:43.680Z,101041.06
2023-01-02T07:50:46.439Z,101048.17
2023-01-02T07:51:51.923Z,101046.30
2023-01-02T07:52:55.099Z,101039.08
2023-01-02T07:54:01.486Z,101053.13
2023-01-02T07:55:08.979Z,101057.76
2023-01-02T07:56:12.174Z,101051.01
2023-01-02T07:57:15.720Z,101050.48
2023-01-02T07:58:19.029Z,101052.97
2023-01-02T07:59:21.274Z,101053.66
2023-01-02T08:00:26.064Z,101055.37
2023-01-02T08:01:29.312Z,101057.15
2023-01-02T08:02:33.960Z,101057.37
2023-01-02T08:03:38.885Z,101055.44
2023-01-02T08:04:41.512Z,101055.54
2023-01-02T08:05:45.026Z,101062.44
2023-01-02T08:06:47.571Z,101054.80
2023-01-02T08:07:52.028Z,101064.44
2023-01-02T08:08:55.641Z,101057.08
2023-01-02T08:09:58.319Z,101060.47
2023-01-02T08:11:15.388Z,101067.34
2023-01-02T08:12:18.797Z,101075.45
2023-01-02T08:13:23.861Z,101073.92
2023-01-02T08:14:26.419Z,101086.60
2023-01-02T08:15:29.832Z,101090.05
2023-01-02T08:16:32.122Z,101085.03
2023-01-02T08:17:36.213Z,101084.05
2023-01-02T08:18:41.528Z,101087.41
2023-01-02T08:19:44.897Z,101087.30
2023-01-02T08:20:47.903Z,101087.53
2023-01-02T08:21:51.291Z,101085.76
2023-01-02T08:22:56.341Z,101090.41
2023-01-02T08:23:58.591Z,101084.04
2023-01-02T08:25:05.707Z,101092.36
2023-01-02T08:26:11.026Z,101087.78
2023-01-02T08:27:14.224Z,101084.40
2023-01-02T08:28:19.146Z,101091.54
2023-01-02T08:29:26.207Z,101094.57
2023-01-02T08:30:28.823Z,101092.95
2023-01-02T08:31:33.271Z,101100.34
2023-01-02T08:32:38.167Z,101099.48
2023-01-02T08:33:41.320Z,101097.20
2023-01-02T08:34:43.892Z,101105.17
2023-01-02T08:35:48.228Z,101112.31
2023-01-02T08:36:51.737Z,101110.88
2023-01-02T08:37:54.950Z,101111.87
2023-01-02T08:38:58.325Z,101108.72
2023-01-02T08:40:00.878Z,101108.21
2023-01-02T08:41:04.310Z,101100.34
2023-01-02T08:42:08.862Z,101097.83
2023-01-02T08:43:11.105Z,101085.22
2023-01-02T08:44:14.596Z,101090.75
2023-01-02T08:45:17.819Z,101080.95
2023-01-02T08:46:22.394Z,101071.75
2023-01-02T08:47:25.843Z,101072.39
2023-01-02T08:48:28.983Z,101062.87
2023-01-02T08:49:33.403Z,101062.40
2023-01-02T08:50:36.776Z,101054.91
2023-01-02T08:51:39.579Z,101055.42
2023-01-02T08:52:42.845Z,101060.00
2023-01-02T08:53:46.246Z,101050.62
2023-01-02T08:54:49.646Z,101054.36
2023-01-02T08:55:52.316Z,101050.84
2023-01-02T08:56:58.836Z,101046.56
2023-01-02T08:58:03.377Z,101053.20
2023-01-02T08:59:13.279Z,101051.84
2023-01-02T09:00:18.764Z,101050.98
2023-01-02T09:01:23.107Z,101052.27
2023-01-02T09:02:26.985Z,101052.17
2023-01-02T09:03:31.855Z,101048.36
2023-01-02T09:04:35.287Z,101039.41
2023-01-02T09:05:37.545Z,101048.55
2023-01-02T09:06:44.320Z,101043.84
2023-01-02T09:07:47.687Z,101042.84
2023-01-02T09:08:53.802Z,101035.78
2023-01-02T09:09:57.097Z,101045.59
2023-01-02T09:10:59.786Z,101046.02
2023-01-02T09:12:02.997Z,101040.42
2023-01-02T09:13:07.706Z,101038.33
2023-01-02T09:14:11.005Z,101039.21
2023-01-02T09:15:14.208Z,101032.94
2023-01-02T09:16:17.843Z,101038.06
2023-01-02T09:17:21.215Z,101035.42
2023-01-02T09:18:29.613Z,101032.16
2023-01-02T09:19:32.458Z,101032.34
2023-01-02T09:20:37.893Z,101029.10
2023-01-02T09:21:42.339Z,101036.87
2023-01-02T09:22:46.399Z,101038.33
2023-01-02T09:23:52.605Z,101034.72
2023-01-02T09:24:56.510Z,101036.16
2023-01-02T09:26:07.564Z,101040.08
2023-01-02T09:27:12.087Z,101036.83
2023-01-02T09:28:17.953Z,101037.22
2023-01-02T09:29:21.287Z,101035.67
2023-01-02T09:30:25.743Z,101038.64
2023-01-02T09:31:30.559Z,101038.37
2023-01-02T09:32:35.043Z,101036.66
2023-01-02T09:33:37.743Z,101036.47
2023-01-02T09:34:40.987Z,101032.83
2023-01-02T09:35:43.464Z,101040.81
2023-01-02T09:36:47.386Z,101041.70
2023-01-02T09:37:50.881Z,101040.84
2023-01-02T09:38:54.921Z,101043.70
2023-01-02T09:40:02.356Z,101036.06
2023-01-02T09:41:22.453Z,101040.83
2023-01-02T09:42:26.010Z,101045.30
2023-01-02T09:43:34.021Z,101042.33
2023-01-02T09:44:42.038Z,101042.14
2023-01-02T09:45:46.678Z,101038.93
2023-01-02T09:46:51.722Z,101042.23
2023-01-02T09:47:55.650Z,101035.19
2023-01-02T09:49:00.511Z,101038.54
2023-01-02T09:50:06.006Z,101037.11
2023-01-02T09:51:10.426Z,101044.25
2023-01-02T09:52:15.938Z,101035.80
2023-01-02T09:53:20.066Z,101046.27
2023-01-02T09:54:25.662Z,101046.63
2023-01-02T09:55:36.411Z,101043.11
2023-01-02T09:56:41.134Z,101036.75
2023-01-02T09:57:49.335Z,101040.84
2023-01-02T09:59:03.407Z,101038.92
2023-01-02T10:00:22.248Z,101042.08
2023-01-02T10:01:34.997Z,101033.80
2023-01-02T10:02:40.172Z,101024.96
2023-01-02T10:03:46.017Z,101030.47
2023-01-02T10:05:08.026Z,101037.11
2023-01-02T10:06:16.968Z,101029.70
2023-01-02T10:07:38.849Z,101030.07
2023-01-02T10:08:54.276Z,101027.22
2023-01-02T10:10:00.586Z,101030.37
2023-01-02T10:11:17.421Z,101023.70
2023-01-02T10:12:21.480Z,101020.58
2023-01-02T10:13:37.578Z,101025.81
2023-01-02T10:14:45.931Z,101024.20
2023-01-02T10:15:50.854Z,101024.74
2023-01-02T10:16:56.289Z,101017.92
2023-01-02T10:18:01.600Z,101023.61
2023-01-02T10:19:06.766Z,101020.75
2023-01-02T10:20:23.603Z,101022.56
2023-01-02T10:21:24.225Z,101022.92
2023-01-02T10:22:37.306Z,101023.95
2023-01-02T10:23:41.957Z,101024.52
2023-01-02T10:24:58.001Z,101023.07
2023-01-02T10:26:04.182Z,101028.22
2023-01-02T10:27:14.515Z,101023.93
2023-01-02T10:28:38.460Z,101030.37
2023-01-02T10:29:46.394Z,101030.64
2023-01-02T10:30:51.697Z,101027.03
2023-01-02T10:31:57.091Z,101024.14
2023-01-02T10:33:02.654Z,101033.03
2023-01-02T10:34:09.900Z,101025.14
2023-01-02T10:35:21.257Z,101027.45
2023-01-02T10:36:29.154Z,101029.46
2023-01-02T10:37:31.823Z,101022.66
2023-01-02T10:38:40.525Z,101021.97
2023-01-02T10:39:45.208Z,101017.00
2023-01-02T10:40:51.844Z,101015.80
2023-01-02T10:42:05.678Z,101020.85
2023-01-02T10:43:11.386Z,101015.53
2023-01-02T10:44:21.365Z,101025.67
2023-01-02T10:45:25.845Z,101025.75
2023-01-02T10:46:35.243Z,101028.23
2023-01-02T10:47:39.697Z,101029.09
2023-01-02T10:48:50.109Z,101023.83
2023-01-02T10:49:50.369Z,101026.57
2023-01-02T10:51:00.929Z,101026.13
2023-01-02T10:52:06.264Z,101031.16
2023-01-02T10:53:12.204Z,101028.23
2023-01-02T10:54:14.530Z,101031.93
2023-01-02T10:55:35.899Z,101032.27
2023-01-02T10:56:41.494Z,101018.55
2023-01-02T10:57:51.506Z,101003.52
2023-01-02T10:58:55.624Z,101014.85
2023-01-02T10:59:59.733Z,101004.85
2023-01-02T11:01:04.343Z,101005.71
2023-01-02T11:02:08.789Z,101006.83
2023-01-02T11:03:20.067Z,101006.14
2023-01-02T11:04:25.469Z,101006.14
2023-01-02T11:05:30.934Z,101003.40
2023-01-02T11:06:39.785Z,101010.73
2023-01-02T11:07:40.560Z,101002.23
2023-01-02T11:08:44.280Z,101006.34
2023-01-02T11:09:52.690Z,101012.07
2023-01-02T11:10:55.869Z,101011.72
2023-01-02T11:12:01.160Z,101003.82
2023-01-02T11:13:16.585Z,101014.64
2023-01-02T11:14:25.012Z,101005.98
2023-01-02T11:15:32.455Z,101008.91
2023-01-02T11:16:40.214Z,101011.72
2023-01-02T11:17:44.799Z,101012.27
2023-01-02T11:18:53.423Z,101012.36
2023-01-02T11:19:57.480Z,101021.11
2023-01-02T11:21:04.276Z,101018.09
2023-01-02T11:22:09.493Z,101012.67
2023-01-02T11:23:15.925Z,101018.86
2023-01-02T11:24:21.703Z,101017.79
2023-01-02T11:25:29.602Z,101020.36
2023-01-02T11:26:39.522Z,101025.05
2023-01-02T11:27:45.315Z,101017.33
2023-01-02T11:28:55.682Z,101022.06
2023-01-02T11:29:59.509Z,101019.70
2023-01-02T11:31:04.929Z,101019.11
2023-01-02T11:32:08.180Z,101008.41
2023-01-02T11:33:18.610Z,101012.07
2023-01-02T11:34:23.437Z,101019.70
2023-01-02T11:35:30.584Z,101018.45
2023-01-02T11:36:33.998Z,101023.59
2023-01-02T11:37:37.502Z,101019.31
2023-01-02T11:38:48.443Z,101025.76
2023-01-02T11:40:01.966Z,101023.58
2023-01-02T11:41:05.424Z,101023.31
2023-01-02T11:42:28.067Z,101018.54
2023-01-02T11:43:55.832Z,101016.91
2023-01-02T11:45:01.622Z,101021.30
2023-01-02T11:46:06.838Z,101023.78
2023-01-02T11:47:12.311Z,101015.61
2023-01-02T11:48:16.415Z,101024.36
2023-01-02T11:49:22.688Z,101026.44
2023-01-02T11:50:30.653Z,101022.23
2023-01-02T11:51:37.065Z,101022.45
2023-01-02T11:52:58.750Z,101014.38
2023-01-02T11:54:05.458Z,101011.72
2023-01-02T11:55:20.639Z,101018.93
2023-01-02T11:56:34.827Z,101009.23
2023-01-02T11:57:40.337Z,101013.02
2023-01-02T11:58:46.693Z,101001.61
2023-01-02T11:59:52.770Z,101005.56
2023-01-02T12:01:02.128Z,101002.99
2023-01-02T12:02:08.358Z,101000.33
2023-01-02T12:03:18.250Z,100994.16
2023-01-02T12:04:20.184Z,101002.64
2023-01-02T12:05:29.729Z,100992.44
2023-01-02T12:06:35.009Z,100994.16
2023-01-02T12:07:41.047Z,100990.46
2023-01-02T12:08:55.601Z,100991.14
2023-01-02T12:10:09.959Z,100987.71
2023-01-02T12:11:18.379Z,100986.03
2023-01-02T12:12:25.540Z,100984.45
2023-01-02T12:13:32.291Z,100981.80
2023-01-02T12:14:42.476Z,100981.12
2023-01-02T12:15:57.159Z,100974.84
2023-01-02T12:17:10.566Z,100971.69
2023-01-02T12:18:18.473Z,100978.55
2023-01-02T12:19:41.395Z,100968.58
2023-01-02T12:20:46.999Z,100971.42
2023-01-02T12:22:06.783Z,100968.08
2023-01-02T12:23:24.707Z,100956.80
2023-01-02T12:24:32.920Z,100961.91
2023-01-02T12:25:45.088Z,100957.53
2023-01-02T12:26:52.768Z,100954.02
2023-01-02T12:27:58.050Z,100954.78
2023-01-02T12:29:46.422Z,100958.20
2023-01-02T12:30:21.992Z,100961.73
2023-01-02T12:31:32.068Z,100965.06
2023-01-02T12:32:47.684Z,100959.56
2023-01-02T12:33:55.293Z,100964.98
2023-01-02T12:35:19.455Z,100968.08